createdAt,value
2019-05-16T00:00:29.042Z,71.42
2019-05-16T00:02:59.381Z,71.63
2019-05-16T00:05:30.064Z,70.89
2019-05-16T00:08:00.664Z,72.00
2019-05-16T00:10:31.342Z,70.98
2019-05-16T00:13:01.910Z,71.08
2019-05-16T00:15:32.492Z,71.10
2019-05-16T00:18:03.088Z,71.02
2019-05-16T00:20:33.701Z,69.71
2019-05-16T00:23:04.270Z,68.94
2019-05-16T00:25:34.951Z,68.84
2019-05-16T00:28:05.534Z,68.26
2019-05-16T00:30:36.113Z,68.47
2019-05-16T00:33:08.292Z,68.43
2019-05-16T00:35:39.040Z,68.24
2019-05-16T00:38:09.609Z,68.04
2019-05-16T00:40:40.201Z,68.49
2019-05-16T00:43:10.759Z,68.50
2019-05-16T00:45:41.334Z,68.49
2019-05-16T00:48:11.890Z,68.26
2019-05-16T00:50:42.449Z,69.05
2019-05-16T00:53:13.023Z,68.97
2019-05-16T00:55:43.836Z,68.12
2019-05-16T00:58:14.776Z,68.65
2019-05-16T01:00:49.989Z,68.89
2019-05-16T01:03:20.796Z,68.56
2019-05-16T01:05:51.352Z,68.46
2019-05-16T01:08:21.909Z,68.96
2019-05-16T01:10:52.978Z,69.17
2019-05-16T01:13:24.348Z,68.98
2019-05-16T01:15:57.967Z,68.58
2019-05-16T01:18:30.123Z,70.49
2019-05-16T01:21:00.715Z,68.83
2019-05-16T01:23:31.280Z,68.55
2019-05-16T01:26:01.984Z,68.18
2019-05-16T01:28:32.566Z,68.06
2019-05-16T01:31:03.198Z,68.37
2019-05-16T01:33:35.220Z,67.92
2019-05-16T01:36:05.797Z,69.30
2019-05-16T01:38:38.844Z,68.34
2019-05-16T01:41:08.894Z,67.70
2019-05-16T01:43:39.559Z,67.70
2019-05-16T01:46:10.135Z,67.47
2019-05-16T01:48:40.696Z,67.30
2019-05-16T01:51:11.271Z,67.12
2019-05-16T01:53:41.824Z,67.03
2019-05-16T01:56:12.403Z,67.13
2019-05-16T01:58:43.043Z,66.86
2019-05-16T02:01:15.928Z,66.98
2019-05-16T02:03:48.027Z,67.18
2019-05-16T02:06:18.530Z,66.75
2019-05-16T02:08:49.205Z,68.53
2019-05-16T02:11:19.775Z,67.17
2019-05-16T02:13:50.346Z,67.44
2019-05-16T02:16:20.914Z,68.52
2019-05-16T02:18:51.494Z,68.87
2019-05-16T02:21:22.076Z,68.84
2019-05-16T02:23:52.652Z,68.19
2019-05-16T02:26:23.236Z,67.44
2019-05-16T02:28:53.798Z,67.50
2019-05-16T02:31:24.351Z,68.73
2019-05-16T02:33:54.901Z,67.65
2019-05-16T02:36:25.479Z,68.54
2019-05-16T02:38:56.044Z,68.32
2019-05-16T02:41:31.040Z,68.01
2019-05-16T02:44:01.177Z,69.51
2019-05-16T02:46:33.024Z,68.10
2019-05-16T02:49:03.586Z,67.61
2019-05-16T02:51:34.159Z,67.09
2019-05-16T02:54:04.891Z,66.91
2019-05-16T02:56:35.558Z,69.07
2019-05-16T02:59:06.128Z,68.64
2019-05-16T03:01:36.686Z,70.09
2019-05-16T03:04:07.237Z,68.45
2019-05-16T03:06:41.095Z,68.66
2019-05-16T03:09:12.232Z,68.40
2019-05-16T03:11:43.928Z,68.76
2019-05-16T03:14:14.867Z,67.57
2019-05-16T03:16:50.402Z,67.19
2019-05-16T03:19:21.605Z,67.59
2019-05-16T03:21:54.179Z,66.96
2019-05-16T03:24:24.759Z,67.84
2019-05-16T03:26:55.413Z,68.74
2019-05-16T03:29:25.980Z,68.62
2019-05-16T03:31:56.538Z,68.69
2019-05-16T03:34:27.113Z,67.53
2019-05-16T03:37:03.320Z,67.95
2019-05-16T03:39:31.384Z,67.51
2019-05-16T03:42:02.073Z,67.69
2019-05-16T03:44:32.706Z,68.87
2019-05-16T03:47:03.306Z,67.33
2019-05-16T03:49:33.859Z,68.59
2019-05-16T03:52:04.443Z,67.47
2019-05-16T03:54:34.999Z,67.11
2019-05-16T03:57:05.579Z,67.80
2019-05-16T03:59:36.166Z,67.51
2019-05-16T04:02:06.990Z,68.10
2019-05-16T04:04:37.563Z,67.56
2019-05-16T04:07:10.940Z,67.70
2019-05-16T04:09:41.213Z,68.07
2019-05-16T04:12:12.029Z,68.64
2019-05-16T04:14:42.849Z,68.33
2019-05-16T04:17:13.404Z,68.99
2019-05-16T04:19:44.555Z,69.29
2019-05-16T04:22:15.865Z,68.55
2019-05-16T04:24:46.731Z,69.74
2019-05-16T04:27:17.620Z,69.57
2019-05-16T04:29:51.054Z,68.08
2019-05-16T04:32:21.226Z,67.56
2019-05-16T04:34:52.753Z,68.22
2019-05-16T04:37:26.236Z,67.98
2019-05-16T04:39:55.894Z,68.47
2019-05-16T04:42:27.070Z,68.53
2019-05-16T04:45:01.219Z,69.08
2019-05-16T04:47:31.880Z,69.12
2019-05-16T04:50:02.766Z,68.65
2019-05-16T04:52:34.300Z,68.21
2019-05-16T04:55:11.813Z,67.69
2019-05-16T04:57:42.263Z,67.46
2019-05-16T05:00:13.538Z,68.16
2019-05-16T05:02:44.266Z,67.46
2019-05-16T05:05:15.568Z,67.11
2019-05-16T05:07:46.146Z,66.92
2019-05-16T05:10:16.789Z,67.53
2019-05-16T05:12:47.408Z,67.44
2019-05-16T05:15:21.039Z,68.71
2019-05-16T05:17:50.758Z,67.77
2019-05-16T05:20:21.335Z,69.34
2019-05-16T05:22:52.062Z,68.38
2019-05-16T05:25:22.825Z,70.83
2019-05-16T05:27:53.655Z,72.01
2019-05-16T05:30:24.305Z,72.76
2019-05-16T05:32:54.868Z,72.87
2019-05-16T05:35:25.459Z,73.24
2019-05-16T05:37:56.134Z,73.49
2019-05-16T05:40:26.749Z,73.63
2019-05-16T05:42:59.735Z,73.76
2019-05-16T05:45:30.639Z,73.81
2019-05-16T05:48:01.867Z,73.43
2019-05-16T05:50:32.434Z,74.13
2019-05-16T05:53:03.260Z,74.19
2019-05-16T05:55:34.264Z,74.58
2019-05-16T05:58:04.826Z,74.66
2019-05-16T06:00:35.449Z,74.85
2019-05-16T06:03:06.618Z,75.72
2019-05-16T06:05:37.198Z,75.59
2019-05-16T06:08:10.623Z,76.22
2019-05-16T06:10:40.791Z,74.67
2019-05-16T06:13:11.377Z,73.86
2019-05-16T06:15:41.959Z,75.11
2019-05-16T06:18:12.543Z,74.50
2019-05-16T06:20:44.219Z,75.10
2019-05-16T06:23:15.797Z,73.70
2019-05-16T06:25:46.677Z,74.07
2019-05-16T06:28:20.160Z,73.64
2019-05-16T06:30:51.384Z,74.44
2019-05-16T06:33:23.516Z,73.98
2019-05-16T06:35:54.098Z,74.87
2019-05-16T06:38:24.730Z,76.34
2019-05-16T06:40:55.311Z,78.03
2019-05-16T06:43:26.118Z,79.54
2019-05-16T06:46:00.346Z,80.34
2019-05-16T06:48:30.467Z,79.65
2019-05-16T06:51:02.925Z,79.15
2019-05-16T06:53:33.556Z,79.57
2019-05-16T06:56:04.430Z,77.67
2019-05-16T06:58:45.671Z,76.68
2019-05-16T07:01:10.263Z,77.38
2019-05-16T07:03:40.536Z,76.15
2019-05-16T07:06:26.219Z,74.67
2019-05-16T07:08:43.514Z,73.26
2019-05-16T07:11:14.196Z,74.49
2019-05-16T07:13:44.775Z,74.79
2019-05-16T07:16:16.432Z,74.07
2019-05-16T07:18:50.392Z,73.52
2019-05-16T07:21:20.408Z,75.82
2019-05-16T07:23:51.319Z,74.73
2019-05-16T07:26:22.034Z,73.41
2019-05-16T07:28:52.616Z,73.11
2019-05-16T07:31:23.219Z,72.78
2019-05-16T07:33:53.903Z,72.46
2019-05-16T07:36:24.593Z,71.93
2019-05-16T07:38:56.194Z,72.67
2019-05-16T07:41:26.773Z,71.37
2019-05-16T07:43:57.464Z,71.41
2019-05-16T07:46:28.028Z,71.59
2019-05-16T07:49:01.180Z,71.57
2019-05-16T07:51:31.215Z,71.85
2019-05-16T07:54:01.808Z,70.40
2019-05-16T07:56:32.529Z,68.97
2019-05-16T07:59:03.314Z,68.82
2019-05-16T08:01:33.995Z,68.20
2019-05-16T08:04:04.788Z,68.35
2019-05-16T08:06:35.495Z,68.09
2019-05-16T08:09:08.010Z,68.14
2019-05-16T08:11:40.831Z,69.92
2019-05-16T08:14:12.578Z,68.33
2019-05-16T08:16:43.212Z,67.80
2019-05-16T08:19:14.914Z,68.63
2019-05-16T08:21:45.533Z,69.22
2019-05-16T08:24:16.112Z,68.84
2019-05-16T08:26:46.737Z,68.90
2019-05-16T08:29:17.293Z,68.20
2019-05-16T08:31:47.887Z,68.58
2019-05-16T08:34:20.786Z,68.54
2019-05-16T08:36:51.940Z,68.25
2019-05-16T08:39:24.142Z,69.64
2019-05-16T08:41:54.777Z,68.24
2019-05-16T08:44:25.480Z,68.54
2019-05-16T08:49:30.706Z,69.22
2019-05-16T08:52:01.612Z,69.67
2019-05-16T08:54:33.661Z,70.87
2019-05-16T08:57:25.468Z,71.75
2019-05-16T08:59:41.076Z,69.91
2019-05-16T09:02:12.511Z,70.89
2019-05-16T09:04:45.977Z,71.31
2019-05-16T09:07:16.652Z,71.17
2019-05-16T09:10:19.016Z,71.08
2019-05-16T09:10:41.376Z,68.35
2019-05-16T09:12:20.484Z,71.60
2019-05-16T09:14:51.063Z,71.41
2019-05-16T09:17:21.645Z,70.55
2019-05-16T09:19:52.247Z,70.77
2019-05-16T09:22:22.831Z,71.96
2019-05-16T09:24:53.461Z,71.17
2019-05-16T09:27:24.099Z,70.97
2019-05-16T09:29:56.837Z,70.80
2019-05-16T09:32:28.047Z,70.83
2019-05-16T09:34:58.783Z,71.64
2019-05-16T09:37:29.379Z,70.40
2019-05-16T09:39:59.967Z,70.52
2019-05-16T09:42:30.858Z,70.74
2019-05-16T09:45:01.459Z,69.84
2019-05-16T09:47:33.603Z,70.11
2019-05-16T09:50:08.453Z,70.59
2019-05-16T09:52:39.131Z,69.79
2019-05-16T09:55:11.043Z,70.82
2019-05-16T09:57:41.692Z,71.68
2019-05-16T10:00:18.371Z,70.32
2019-05-16T10:02:49.222Z,70.62
2019-05-16T10:05:20.531Z,70.94
2019-05-16T10:07:51.130Z,69.46
2019-05-16T10:10:22.105Z,68.96
2019-05-16T10:12:54.201Z,69.37
2019-05-16T10:15:26.969Z,69.54
2019-05-16T10:17:57.631Z,69.24
2019-05-16T10:20:28.802Z,70.10
2019-05-16T10:22:59.379Z,70.41
2019-05-16T10:25:29.968Z,68.21
2019-05-16T10:28:00.542Z,68.48
2019-05-16T10:30:31.196Z,68.69
2019-05-16T10:33:01.844Z,68.94
2019-05-16T10:35:32.416Z,68.51
2019-05-16T10:38:02.998Z,69.12
2019-05-16T10:40:33.642Z,69.93
2019-05-16T10:43:06.873Z,69.85
2019-05-16T10:45:37.002Z,69.64
2019-05-16T10:48:07.617Z,69.32
2019-05-16T10:50:38.205Z,70.12
2019-05-16T10:53:32.517Z,68.67
2019-05-16T10:55:41.102Z,67.79
2019-05-16T10:58:11.660Z,67.41
2019-05-16T11:01:07.654Z,66.10
2019-05-16T11:03:16.970Z,66.77
2019-05-16T11:06:01.197Z,67.34
2019-05-16T11:08:19.301Z,66.01
2019-05-16T11:10:49.919Z,67.91
2019-05-16T11:13:20.602Z,67.27
2019-05-16T11:15:51.178Z,66.93
2019-05-16T11:18:21.767Z,66.86
2019-05-16T11:20:52.427Z,66.85
2019-05-16T11:23:24.294Z,67.93
2019-05-16T11:25:57.787Z,67.26
2019-05-16T11:28:27.579Z,67.51
2019-05-16T11:31:03.250Z,66.24
2019-05-16T11:33:30.423Z,67.25
2019-05-16T11:36:01.016Z,66.36
2019-05-16T11:38:31.789Z,68.21
2019-05-16T11:41:02.451Z,66.45
2019-05-16T11:43:36.562Z,66.83
2019-05-16T11:46:06.757Z,66.19
2019-05-16T11:48:37.913Z,67.12
2019-05-16T11:51:08.612Z,65.38
2019-05-16T11:53:39.190Z,64.62
2019-05-16T11:56:09.881Z,64.58
2019-05-16T11:58:40.476Z,65.01
2019-05-16T12:01:11.556Z,65.83
2019-05-16T12:03:42.176Z,65.96
2019-05-16T12:06:13.090Z,65.43
2019-05-16T12:08:43.668Z,66.02
2019-05-16T12:11:14.233Z,65.79
2019-05-16T12:13:47.412Z,65.87
2019-05-16T12:16:18.810Z,64.37
2019-05-16T12:18:49.470Z,64.21
2019-05-16T12:21:20.062Z,64.69
2019-05-16T12:23:50.631Z,64.02
2019-05-16T12:26:24.282Z,65.44
2019-05-16T12:28:56.862Z,63.80
2019-05-16T12:31:27.272Z,64.18
2019-05-16T12:33:59.691Z,62.77
2019-05-16T12:36:31.545Z,63.98
2019-05-16T12:39:02.255Z,64.30
2019-05-16T12:41:34.051Z,64.02
2019-05-16T12:44:07.433Z,65.37
2019-05-16T12:46:37.478Z,65.50
2019-05-16T12:49:08.090Z,62.85
2019-05-16T12:51:38.662Z,64.07
2019-05-16T12:54:09.255Z,62.46
2019-05-16T12:56:39.934Z,64.02
2019-05-16T12:59:10.497Z,61.82
2019-05-16T13:01:42.093Z,61.82
2019-05-16T13:04:12.775Z,61.97
2019-05-16T13:06:44.272Z,62.31
2019-05-16T13:09:15.137Z,63.46
2019-05-16T13:11:47.229Z,62.35
2019-05-16T13:14:18.007Z,62.92
2019-05-16T13:16:49.074Z,62.07
2019-05-16T13:19:19.660Z,62.26
2019-05-16T13:21:50.546Z,61.97
2019-05-16T13:24:21.200Z,61.44
2019-05-16T13:26:52.009Z,62.55
2019-05-16T13:29:22.703Z,63.11
2019-05-16T13:31:53.314Z,63.40
2019-05-16T13:34:23.992Z,62.79
2019-05-16T13:36:54.582Z,62.04
2019-05-16T13:39:27.966Z,61.85
2019-05-16T13:41:58.527Z,62.10
2019-05-16T13:44:29.117Z,62.94
2019-05-16T13:46:59.699Z,61.90
2019-05-16T13:49:31.719Z,61.34
2019-05-16T13:52:02.329Z,61.61
2019-05-16T13:54:33.107Z,61.18
2019-05-16T13:57:06.932Z,61.10
2019-05-16T13:59:37.536Z,60.61
2019-05-16T14:02:08.266Z,60.82
2019-05-16T14:04:40.036Z,60.83
2019-05-16T14:07:10.624Z,60.30
2019-05-16T14:09:41.210Z,61.78
2019-05-16T14:12:12.030Z,61.05
2019-05-16T14:14:42.786Z,60.53
2019-05-16T14:17:15.433Z,62.27
2019-05-16T14:19:47.872Z,61.69
2019-05-16T14:22:18.244Z,60.82
2019-05-16T14:24:48.857Z,60.63
2019-05-16T14:27:19.464Z,61.08
2019-05-16T14:29:50.562Z,60.93
2019-05-16T14:32:21.369Z,60.95
2019-05-16T14:34:52.065Z,61.80
2019-05-16T14:37:22.607Z,61.34
2019-05-16T14:39:57.718Z,61.49
2019-05-16T14:42:28.037Z,60.97
2019-05-16T14:45:11.162Z,60.59
2019-05-16T14:47:31.990Z,61.06
2019-05-16T14:50:03.109Z,61.72
2019-05-16T14:52:36.455Z,61.77
2019-05-16T14:55:07.438Z,61.92
2019-05-16T14:57:42.014Z,63.25
2019-05-16T15:00:13.229Z,63.45
2019-05-16T15:02:43.852Z,62.73
2019-05-16T15:05:15.592Z,63.39
2019-05-16T15:07:48.348Z,63.00
2019-05-16T15:10:19.291Z,61.88
2019-05-16T15:12:51.222Z,62.85
2019-05-16T15:15:24.743Z,62.08
2019-05-16T15:17:56.793Z,61.09
2019-05-16T15:20:27.853Z,61.03
2019-05-16T15:22:58.873Z,60.87
2019-05-16T15:25:29.448Z,60.36
2019-05-16T15:28:00.568Z,60.31
2019-05-16T15:30:31.276Z,60.38
2019-05-16T15:33:01.829Z,60.51
2019-05-16T15:35:32.401Z,60.77
2019-05-16T15:38:03.101Z,60.79
2019-05-16T15:40:34.093Z,60.04
2019-05-16T15:43:07.803Z,60.08
2019-05-16T15:45:43.959Z,59.87
2019-05-16T15:48:13.264Z,60.55
2019-05-16T15:50:43.908Z,60.62
2019-05-16T15:53:14.690Z,60.99
2019-05-16T15:55:47.142Z,61.41
2019-05-16T15:58:18.824Z,61.70
2019-05-16T16:00:51.020Z,61.97
2019-05-16T16:03:21.745Z,62.36
2019-05-16T16:05:52.551Z,62.28
2019-05-16T16:08:23.422Z,62.25
2019-05-16T16:10:54.051Z,62.90
2019-05-16T16:13:26.839Z,62.75
2019-05-16T16:15:57.689Z,61.93
2019-05-16T16:18:28.662Z,62.21
2019-05-16T16:20:59.243Z,62.92
2019-05-16T16:23:29.908Z,61.96
2019-05-16T16:26:00.667Z,62.17
2019-05-16T16:28:33.653Z,62.15
2019-05-16T16:31:07.595Z,61.99
2019-05-16T16:33:37.963Z,61.82
2019-05-16T16:36:08.712Z,61.86
2019-05-16T16:38:39.658Z,61.74
2019-05-16T16:41:10.237Z,62.42
2019-05-16T16:43:40.859Z,62.23
2019-05-16T16:46:13.634Z,62.99
2019-05-16T16:48:43.879Z,63.46
2019-05-16T16:51:17.405Z,63.60
2019-05-16T16:53:47.512Z,63.80
2019-05-16T16:56:18.125Z,63.83
2019-05-16T16:58:48.750Z,64.33
2019-05-16T17:01:19.457Z,64.02
2019-05-16T17:03:50.090Z,64.19
2019-05-16T17:06:20.699Z,64.35
2019-05-16T17:08:51.839Z,64.97
2019-05-16T17:11:23.042Z,64.99
2019-05-16T17:13:53.758Z,65.12
2019-05-16T17:16:28.430Z,65.13
2019-05-16T17:18:56.929Z,65.22
2019-05-16T17:21:27.580Z,65.25
2019-05-16T17:23:58.174Z,65.07
2019-05-16T17:26:29.140Z,65.29
2019-05-16T17:28:59.766Z,65.45
2019-05-16T17:31:31.058Z,65.40
2019-05-16T17:34:01.664Z,65.31
2019-05-16T17:36:32.747Z,64.95
2019-05-16T17:39:05.673Z,64.91
2019-05-16T17:41:37.011Z,65.04
2019-05-16T17:44:07.843Z,65.14
2019-05-16T17:46:40.945Z,65.46
2019-05-16T17:49:11.470Z,64.75
2019-05-16T17:51:42.430Z,64.74
2019-05-16T17:54:13.212Z,64.68
2019-05-16T17:56:44.097Z,64.43
2019-05-16T17:59:17.067Z,64.59
2019-05-16T18:01:47.440Z,64.74
2019-05-16T18:04:19.868Z,64.52
2019-05-16T18:06:50.663Z,64.51
2019-05-16T18:09:21.794Z,64.64
2019-05-16T18:11:52.541Z,64.48
2019-05-16T18:14:23.564Z,64.26
2019-05-16T18:17:01.649Z,64.18
2019-05-16T18:19:29.075Z,64.24
2019-05-16T18:21:59.846Z,64.25
2019-05-16T18:24:30.768Z,63.98
2019-05-16T18:27:02.188Z,64.70
2019-05-16T18:29:36.349Z,64.19
2019-05-16T18:32:09.253Z,64.16
2019-05-16T18:34:39.841Z,64.19
2019-05-16T18:37:10.595Z,64.30
2019-05-16T18:39:41.178Z,64.49
2019-05-16T18:42:11.925Z,64.47
2019-05-16T18:44:47.199Z,64.43
2019-05-16T18:47:17.961Z,64.83
2019-05-16T18:49:48.872Z,64.41
2019-05-16T18:52:19.747Z,64.42
2019-05-16T18:54:50.638Z,63.31
2019-05-16T18:57:21.487Z,64.13
2019-05-16T18:59:52.833Z,65.94
2019-05-16T19:02:23.617Z,66.90
2019-05-16T19:04:54.251Z,67.35
2019-05-16T19:07:27.385Z,67.11
2019-05-16T19:09:59.190Z,67.65
2019-05-16T19:12:30.740Z,67.92
2019-05-16T19:15:01.385Z,68.15
2019-05-16T19:17:33.756Z,67.75
2019-05-16T19:20:06.618Z,67.16
2019-05-16T19:22:37.931Z,67.39
2019-05-16T19:25:08.978Z,67.32
2019-05-16T19:27:40.234Z,67.22
2019-05-16T19:30:12.005Z,66.51
2019-05-16T19:32:42.658Z,66.00
2019-05-16T19:35:18.245Z,66.02
2019-05-16T19:37:49.198Z,65.81
2019-05-16T19:40:20.339Z,65.95
2019-05-16T19:42:51.405Z,65.85
2019-05-16T19:45:23.133Z,66.35
2019-05-16T19:47:53.943Z,66.62
2019-05-16T19:50:26.654Z,66.64
2019-05-16T19:52:57.879Z,66.37
2019-05-16T19:55:29.294Z,66.61
2019-05-16T19:58:00.315Z,66.35
2019-05-16T20:00:31.358Z,66.18
2019-05-16T20:03:02.223Z,66.44
2019-05-16T20:05:33.162Z,66.27
2019-05-16T20:08:06.630Z,66.26
2019-05-16T20:10:37.949Z,66.43
2019-05-16T20:13:10.194Z,67.47
2019-05-16T20:15:41.818Z,67.75
2019-05-16T20:18:13.097Z,67.96
2019-05-16T20:20:44.278Z,67.70
2019-05-16T20:23:18.712Z,67.01
2019-05-16T20:25:49.273Z,66.91
2019-05-16T20:28:20.383Z,67.75
2019-05-16T20:30:52.685Z,67.50
2019-05-16T20:33:23.977Z,66.92
2019-05-16T20:35:57.275Z,67.25
2019-05-16T20:38:27.576Z,67.62
2019-05-16T20:40:59.844Z,67.77
2019-05-16T20:43:32.357Z,68.13
2019-05-16T20:46:03.424Z,68.02
2019-05-16T20:48:34.216Z,67.40
2019-05-16T20:51:07.399Z,67.11
2019-05-16T20:53:38.527Z,66.92
2019-05-16T20:56:12.047Z,66.71
2019-05-16T20:58:42.806Z,66.90
2019-05-16T21:01:13.416Z,66.77
2019-05-16T21:03:44.013Z,66.68
2019-05-16T21:06:16.921Z,66.93
2019-05-16T21:08:49.658Z,67.15
2019-05-16T21:11:19.956Z,66.94
2019-05-16T21:13:50.944Z,67.12
2019-05-16T21:16:21.531Z,66.73
2019-05-16T21:18:52.208Z,66.74
2019-05-16T21:21:27.226Z,66.57
2019-05-16T21:23:56.909Z,66.54
2019-05-16T21:26:27.484Z,66.65
2019-05-16T21:28:58.065Z,66.38
2019-05-16T21:31:28.652Z,66.41
2019-05-16T21:33:59.325Z,66.07
2019-05-16T21:36:29.939Z,65.89
2019-05-16T21:39:00.521Z,66.21
2019-05-16T21:41:32.581Z,66.78
2019-05-16T21:44:03.547Z,66.29
2019-05-16T21:46:36.399Z,66.18
2019-05-16T21:49:07.516Z,66.42
2019-05-16T21:51:38.364Z,66.54
2019-05-16T21:54:08.989Z,66.63
2019-05-16T21:56:39.578Z,66.86
2019-05-16T21:59:10.299Z,66.56
2019-05-16T22:01:41.231Z,66.68
2019-05-16T22:04:12.016Z,66.35
2019-05-16T22:06:42.689Z,66.33
2019-05-16T22:09:13.318Z,66.25
2019-05-16T22:11:46.534Z,65.91
2019-05-16T22:14:20.387Z,66.54
2019-05-16T22:16:51.082Z,66.66
2019-05-16T22:19:21.653Z,66.78
2019-05-16T22:21:52.242Z,66.67
2019-05-16T22:24:22.972Z,66.50
2019-05-16T22:26:53.543Z,66.37
2019-05-16T22:29:26.315Z,66.51
2019-05-16T22:31:57.435Z,66.47
2019-05-16T22:34:29.079Z,66.57
2019-05-16T22:36:59.656Z,66.44
2019-05-16T22:39:30.264Z,66.58
2019-05-16T22:42:01.043Z,66.49
2019-05-16T22:44:31.804Z,66.94
2019-05-16T22:47:02.372Z,67.23
2019-05-16T22:49:33.146Z,67.60
2019-05-16T22:52:03.726Z,68.12
2019-05-16T22:54:36.861Z,67.84
2019-05-16T22:57:07.758Z,67.40
2019-05-16T22:59:38.365Z,67.16
2019-05-16T23:02:11.695Z,67.71
2019-05-16T23:04:42.256Z,68.03
2019-05-16T23:07:13.121Z,67.75
2019-05-16T23:09:43.931Z,67.43
2019-05-16T23:12:14.625Z,67.49
2019-05-16T23:14:46.287Z,67.28
2019-05-16T23:17:17.416Z,67.62
2019-05-16T23:19:48.120Z,67.60
2019-05-16T23:22:18.905Z,67.52
2019-05-16T23:24:49.478Z,67.72
2019-05-16T23:27:20.043Z,68.36
2019-05-16T23:29:50.605Z,68.98
2019-05-16T23:32:21.389Z,69.20
2019-05-16T23:34:52.057Z,68.97
2019-05-16T23:37:22.642Z,68.48
2019-05-16T23:39:53.233Z,67.95
2019-05-16T23:42:26.219Z,67.81
2019-05-16T23:44:56.696Z,67.59
2019-05-16T23:47:27.384Z,67.16
2019-05-16T23:49:57.966Z,67.81
2019-05-16T23:52:29.154Z,67.24
2019-05-16T23:54:59.728Z,66.96
2019-05-16T23:57:30.410Z,66.96
